sensor_id;sensor_type;location;lat;lon;timestamp;P1;durP1;ratioP1;P2;durP2;ratioP2
60257;SDS011;46115;44.484;11.314;2024-01-15T00:06:49;76.90;;;50.67;;
60257;SDS011;46115;44.484;11.314;2024-01-15T00:10:53;74.60;;;48.88;;
60257;SDS011;46115;44.484;11.314;2024-01-15T00:14:55;71.32;;;46.42;;
60257;SDS011;46115;44.484;11.314;2024-01-15T00:22:59;75.67;;;47.40;;
60257;SDS011;46115;44.484;11.314;2024-01-15T00:31:05;77.47;;;49.35;;
60257;SDS011;46115;44.484;11.314;2024-01-15T00:39:10;66.72;;;46.88;;
60257;SDS011;46115;44.484;11.314;2024-01-15T00:43:13;74.22;;;49.80;;
60257;SDS011;46115;44.484;11.314;2024-01-15T00:47:18;66.47;;;45.80;;
60257;SDS011;46115;44.484;11.314;2024-01-15T00:55:24;76.20;;;48.78;;
60257;SDS011;46115;44.484;11.314;2024-01-15T01:03:29;76.97;;;49.35;;
60257;SDS011;46115;44.484;11.314;2024-01-15T01:07:32;81.75;;;50.28;;
60257;SDS011;46115;44.484;11.314;2024-01-15T01:15:38;83.25;;;51.85;;
60257;SDS011;46115;44.484;11.314;2024-01-15T01:19:40;82.53;;;51.50;;
60257;SDS011;46115;44.484;11.314;2024-01-15T01:23:42;78.70;;;48.97;;
60257;SDS011;46115;44.484;11.314;2024-01-15T01:31:48;66.83;;;47.17;;
60257;SDS011;46115;44.484;11.314;2024-01-15T01:35:50;65.60;;;45.60;;
60257;SDS011;46115;44.484;11.314;2024-01-15T01:39:53;84.22;;;51.88;;
60257;SDS011;46115;44.484;11.314;2024-01-15T01:48:00;80.93;;;51.03;;
60257;SDS011;46115;44.484;11.314;2024-01-15T01:52:04;78.95;;;52.72;;
60257;SDS011;46115;44.484;11.314;2024-01-15T01:56:07;78.93;;;52.13;;
60257;SDS011;46115;44.484;11.314;2024-01-15T02:00:11;77.55;;;49.47;;
60257;SDS011;46115;44.484;11.314;2024-01-15T02:04:16;79.53;;;50.33;;
60257;SDS011;46115;44.484;11.314;2024-01-15T02:08:19;71.65;;;47.47;;
60257;SDS011;46115;44.484;11.314;2024-01-15T02:12:22;78.78;;;51.00;;
60257;SDS011;46115;44.484;11.314;2024-01-15T02:20:27;76.75;;;50.40;;
60257;SDS011;46115;44.484;11.314;2024-01-15T02:24:31;74.22;;;49.17;;
60257;SDS011;46115;44.484;11.314;2024-01-15T02:28:34;75.68;;;47.95;;
60257;SDS011;46115;44.484;11.314;2024-01-15T02:36:38;70.47;;;47.30;;
60257;SDS011;46115;44.484;11.314;2024-01-15T02:44:45;72.25;;;47.03;;
60257;SDS011;46115;44.484;11.314;2024-01-15T02:48:49;71.85;;;48.78;;
60257;SDS011;46115;44.484;11.314;2024-01-15T02:56:55;74.13;;;51.15;;
60257;SDS011;46115;44.484;11.314;2024-01-15T03:00:57;66.13;;;44.88;;
60257;SDS011;46115;44.484;11.314;2024-01-15T03:09:01;68.68;;;48.70;;
60257;SDS011;46115;44.484;11.314;2024-01-15T03:13:06;66.20;;;45.70;;
60257;SDS011;46115;44.484;11.314;2024-01-15T03:17:08;64.13;;;44.20;;
60257;SDS011;46115;44.484;11.314;2024-01-15T03:21:12;62.72;;;44.67;;
60257;SDS011;46115;44.484;11.314;2024-01-15T03:29:17;63.38;;;44.28;;
60257;SDS011;46115;44.484;11.314;2024-01-15T03:33:20;67.40;;;48.65;;
60257;SDS011;46115;44.484;11.314;2024-01-15T03:41:24;61.80;;;44.93;;
60257;SDS011;46115;44.484;11.314;2024-01-15T03:49:30;75.32;;;51.60;;
60257;SDS011;46115;44.484;11.314;2024-01-15T03:57:34;71.20;;;50.43;;
60257;SDS011;46115;44.484;11.314;2024-01-15T04:05:39;78.18;;;52.30;;
60257;SDS011;46115;44.484;11.314;2024-01-15T04:13:44;77.55;;;52.83;;
60257;SDS011;46115;44.484;11.314;2024-01-15T04:21:49;74.72;;;51.25;;
60257;SDS011;46115;44.484;11.314;2024-01-15T04:29:54;71.75;;;49.28;;
60257;SDS011;46115;44.484;11.314;2024-01-15T04:37:59;66.18;;;45.00;;
60257;SDS011;46115;44.484;11.314;2024-01-15T04:46:05;71.32;;;48.50;;
60257;SDS011;46115;44.484;11.314;2024-01-15T04:50:09;67.38;;;45.88;;
60257;SDS011;46115;44.484;11.314;2024-01-15T04:54:11;61.30;;;44.53;;
60257;SDS011;46115;44.484;11.314;2024-01-15T04:58:18;65.43;;;44.67;;
60257;SDS011;46115;44.484;11.314;2024-01-15T05:02:21;58.72;;;42.88;;
60257;SDS011;46115;44.484;11.314;2024-01-15T05:06:24;60.53;;;42.58;;
60257;SDS011;46115;44.484;11.314;2024-01-15T05:10:26;60.53;;;41.78;;
60257;SDS011;46115;44.484;11.314;2024-01-15T05:18:31;66.63;;;45.83;;
60257;SDS011;46115;44.484;11.314;2024-01-15T05:26:37;64.43;;;45.65;;
60257;SDS011;46115;44.484;11.314;2024-01-15T05:30:39;56.55;;;40.17;;
60257;SDS011;46115;44.484;11.314;2024-01-15T05:38:44;55.63;;;42.03;;
60257;SDS011;46115;44.484;11.314;2024-01-15T05:42:47;56.05;;;41.67;;
60257;SDS011;46115;44.484;11.314;2024-01-15T05:46:50;51.72;;;39.30;;
60257;SDS011;46115;44.484;11.314;2024-01-15T05:50:52;55.90;;;40.47;;
60257;SDS011;46115;44.484;11.314;2024-01-15T05:58:58;64.00;;;44.53;;
60257;SDS011;46115;44.484;11.314;2024-01-15T06:07:03;56.92;;;41.08;;
60257;SDS011;46115;44.484;11.314;2024-01-15T06:11:07;59.22;;;41.47;;
60257;SDS011;46115;44.484;11.314;2024-01-15T06:15:09;48.55;;;37.28;;
60257;SDS011;46115;44.484;11.314;2024-01-15T06:19:12;55.88;;;39.28;;
60257;SDS011;46115;44.484;11.314;2024-01-15T06:27:18;56.15;;;38.58;;
60257;SDS011;46115;44.484;11.314;2024-01-15T06:31:20;52.10;;;37.13;;
60257;SDS011;46115;44.484;11.314;2024-01-15T06:35:22;58.40;;;42.25;;
60257;SDS011;46115;44.484;11.314;2024-01-15T06:43:28;55.17;;;39.40;;
60257;SDS011;46115;44.484;11.314;2024-01-15T06:47:31;52.88;;;38.65;;
60257;SDS011;46115;44.484;11.314;2024-01-15T06:51:33;56.00;;;38.20;;
60257;SDS011;46115;44.484;11.314;2024-01-15T06:55:36;55.78;;;38.85;;
60257;SDS011;46115;44.484;11.314;2024-01-15T06:59:41;55.85;;;39.20;;
60257;SDS011;46115;44.484;11.314;2024-01-15T07:03:43;48.30;;;35.08;;
60257;SDS011;46115;44.484;11.314;2024-01-15T07:11:48;54.08;;;37.83;;
60257;SDS011;46115;44.484;11.314;2024-01-15T07:19:53;49.90;;;34.85;;
60257;SDS011;46115;44.484;11.314;2024-01-15T07:27:58;51.63;;;36.97;;
60257;SDS011;46115;44.484;11.314;2024-01-15T07:36:04;49.40;;;35.30;;
60257;SDS011;46115;44.484;11.314;2024-01-15T07:40:07;56.13;;;35.03;;
60257;SDS011;46115;44.484;11.314;2024-01-15T07:44:11;59.63;;;36.80;;
60257;SDS011;46115;44.484;11.314;2024-01-15T07:48:15;59.05;;;36.22;;
60257;SDS011;46115;44.484;11.314;2024-01-15T07:52:17;50.55;;;35.55;;
60257;SDS011;46115;44.484;11.314;2024-01-15T08:00:22;44.67;;;32.30;;
60257;SDS011;46115;44.484;11.314;2024-01-15T08:04:26;43.90;;;29.33;;
60257;SDS011;46115;44.484;11.314;2024-01-15T08:08:28;44.80;;;28.85;;
60257;SDS011;46115;44.484;11.314;2024-01-15T08:12:30;42.40;;;28.83;;
60257;SDS011;46115;44.484;11.314;2024-01-15T08:16:33;42.08;;;28.38;;
60257;SDS011;46115;44.484;11.314;2024-01-15T08:20:37;35.58;;;26.80;;
60257;SDS011;46115;44.484;11.314;2024-01-15T08:24:39;47.75;;;30.58;;
60257;SDS011;46115;44.484;11.314;2024-01-15T08:28:42;49.55;;;34.97;;
60257;SDS011;46115;44.484;11.314;2024-01-15T08:32:44;45.58;;;30.55;;
60257;SDS011;46115;44.484;11.314;2024-01-15T08:36:48;36.25;;;27.00;;
60257;SDS011;46115;44.484;11.314;2024-01-15T08:40:50;32.95;;;23.48;;
60257;SDS011;46115;44.484;11.314;2024-01-15T08:44:54;31.02;;;23.67;;
60257;SDS011;46115;44.484;11.314;2024-01-15T08:53:00;33.88;;;24.30;;
60257;SDS011;46115;44.484;11.314;2024-01-15T08:57:02;32.53;;;24.83;;
60257;SDS011;46115;44.484;11.314;2024-01-15T09:01:05;26.13;;;23.33;;
60257;SDS011;46115;44.484;11.314;2024-01-15T09:05:07;30.83;;;25.67;;
60257;SDS011;46115;44.484;11.314;2024-01-15T09:09:11;36.30;;;32.33;;
60257;SDS011;46115;44.484;11.314;2024-01-15T09:13:14;35.30;;;31.25;;
60257;SDS011;46115;44.484;11.314;2024-01-15T09:17:17;37.03;;;29.58;;
60257;SDS011;46115;44.484;11.314;2024-01-15T09:21:20;33.35;;;29.17;;
60257;SDS011;46115;44.484;11.314;2024-01-15T09:25:23;32.53;;;29.02;;
60257;SDS011;46115;44.484;11.314;2024-01-15T09:29:26;32.42;;;27.35;;
60257;SDS011;46115;44.484;11.314;2024-01-15T09:33:28;36.63;;;31.65;;
60257;SDS011;46115;44.484;11.314;2024-01-15T09:37:31;39.10;;;32.90;;
60257;SDS011;46115;44.484;11.314;2024-01-15T09:41:34;39.97;;;32.25;;
60257;SDS011;46115;44.484;11.314;2024-01-15T09:45:37;43.90;;;32.28;;
60257;SDS011;46115;44.484;11.314;2024-01-15T09:49:40;42.22;;;32.97;;
60257;SDS011;46115;44.484;11.314;2024-01-15T09:53:43;45.72;;;34.85;;
60257;SDS011;46115;44.484;11.314;2024-01-15T09:57:47;49.33;;;33.22;;
60257;SDS011;46115;44.484;11.314;2024-01-15T10:01:51;45.67;;;33.75;;
60257;SDS011;46115;44.484;11.314;2024-01-15T10:05:54;47.00;;;34.22;;
60257;SDS011;46115;44.484;11.314;2024-01-15T10:10:01;49.15;;;36.55;;
60257;SDS011;46115;44.484;11.314;2024-01-15T10:14:05;48.28;;;35.25;;
60257;SDS011;46115;44.484;11.314;2024-01-15T10:18:08;48.40;;;36.15;;
60257;SDS011;46115;44.484;11.314;2024-01-15T10:22:13;50.05;;;38.13;;
60257;SDS011;46115;44.484;11.314;2024-01-15T10:26:16;50.40;;;38.10;;
60257;SDS011;46115;44.484;11.314;2024-01-15T10:30:20;51.70;;;37.33;;
60257;SDS011;46115;44.484;11.314;2024-01-15T10:34:22;55.63;;;38.33;;
60257;SDS011;46115;44.484;11.314;2024-01-15T10:38:25;55.20;;;39.05;;
60257;SDS011;46115;44.484;11.314;2024-01-15T10:42:28;54.80;;;40.35;;
60257;SDS011;46115;44.484;11.314;2024-01-15T10:46:31;54.13;;;38.55;;
60257;SDS011;46115;44.484;11.314;2024-01-15T10:50:36;54.55;;;38.75;;
60257;SDS011;46115;44.484;11.314;2024-01-15T10:54:38;54.33;;;38.45;;
60257;SDS011;46115;44.484;11.314;2024-01-15T10:58:41;52.22;;;38.47;;
60257;SDS011;46115;44.484;11.314;2024-01-15T11:02:46;59.75;;;39.60;;
60257;SDS011;46115;44.484;11.314;2024-01-15T11:06:50;54.08;;;39.13;;
60257;SDS011;46115;44.484;11.314;2024-01-15T11:10:54;53.60;;;39.70;;
60257;SDS011;46115;44.484;11.314;2024-01-15T11:15:01;55.50;;;41.03;;
60257;SDS011;46115;44.484;11.314;2024-01-15T11:19:07;58.92;;;39.88;;
60257;SDS011;46115;44.484;11.314;2024-01-15T11:23:10;60.30;;;40.35;;
60257;SDS011;46115;44.484;11.314;2024-01-15T11:27:12;57.65;;;38.30;;
60257;SDS011;46115;44.484;11.314;2024-01-15T11:31:15;51.60;;;36.53;;
60257;SDS011;46115;44.484;11.314;2024-01-15T11:35:18;55.88;;;37.75;;
60257;SDS011;46115;44.484;11.314;2024-01-15T11:43:43;54.90;;;38.00;;
60257;SDS011;46115;44.484;11.314;2024-01-15T11:48:01;50.83;;;36.53;;
60257;SDS011;46115;44.484;11.314;2024-01-15T11:52:16;57.22;;;37.63;;
60257;SDS011;46115;44.484;11.314;2024-01-15T11:56:20;53.75;;;36.35;;
60257;SDS011;46115;44.484;11.314;2024-01-15T12:00:25;52.05;;;36.58;;
60257;SDS011;46115;44.484;11.314;2024-01-15T12:04:27;55.20;;;36.80;;
60257;SDS011;46115;44.484;11.314;2024-01-15T12:08:31;49.30;;;35.80;;
60257;SDS011;46115;44.484;11.314;2024-01-15T12:12:36;53.60;;;35.70;;
60257;SDS011;46115;44.484;11.314;2024-01-15T12:16:57;48.05;;;33.47;;
60257;SDS011;46115;44.484;11.314;2024-01-15T12:20:59;47.95;;;34.08;;
60257;SDS011;46115;44.484;11.314;2024-01-15T12:25:04;46.15;;;32.90;;
60257;SDS011;46115;44.484;11.314;2024-01-15T12:29:06;46.58;;;32.55;;
60257;SDS011;46115;44.484;11.314;2024-01-15T12:33:09;45.63;;;31.70;;
60257;SDS011;46115;44.484;11.314;2024-01-15T12:41:14;47.90;;;32.65;;
60257;SDS011;46115;44.484;11.314;2024-01-15T12:45:17;48.78;;;32.90;;
60257;SDS011;46115;44.484;11.314;2024-01-15T12:49:21;47.30;;;33.47;;
60257;SDS011;46115;44.484;11.314;2024-01-15T12:53:25;49.22;;;32.50;;
60257;SDS011;46115;44.484;11.314;2024-01-15T13:01:31;46.42;;;30.52;;
60257;SDS011;46115;44.484;11.314;2024-01-15T13:05:33;50.92;;;32.22;;
60257;SDS011;46115;44.484;11.314;2024-01-15T13:09:37;42.42;;;32.28;;
60257;SDS011;46115;44.484;11.314;2024-01-15T13:13:41;45.80;;;31.75;;
60257;SDS011;46115;44.484;11.314;2024-01-15T13:17:43;45.90;;;32.10;;
60257;SDS011;46115;44.484;11.314;2024-01-15T13:21:45;45.63;;;31.73;;
60257;SDS011;46115;44.484;11.314;2024-01-15T13:25:48;45.55;;;31.63;;
60257;SDS011;46115;44.484;11.314;2024-01-15T13:29:52;47.58;;;32.55;;
60257;SDS011;46115;44.484;11.314;2024-01-15T13:33:54;49.72;;;32.17;;
60257;SDS011;46115;44.484;11.314;2024-01-15T13:37:58;47.90;;;32.40;;
60257;SDS011;46115;44.484;11.314;2024-01-15T13:42:00;46.17;;;32.30;;
60257;SDS011;46115;44.484;11.314;2024-01-15T13:46:04;47.60;;;32.72;;
60257;SDS011;46115;44.484;11.314;2024-01-15T13:50:06;44.40;;;31.00;;
60257;SDS011;46115;44.484;11.314;2024-01-15T13:54:09;42.78;;;32.08;;
60257;SDS011;46115;44.484;11.314;2024-01-15T13:58:12;52.83;;;34.92;;
60257;SDS011;46115;44.484;11.314;2024-01-15T14:02:15;49.92;;;34.40;;
60257;SDS011;46115;44.484;11.314;2024-01-15T14:06:18;46.30;;;34.13;;
60257;SDS011;46115;44.484;11.314;2024-01-15T14:10:20;53.80;;;35.20;;
60257;SDS011;46115;44.484;11.314;2024-01-15T14:14:23;46.47;;;32.97;;
60257;SDS011;46115;44.484;11.314;2024-01-15T14:18:27;49.50;;;35.55;;
60257;SDS011;46115;44.484;11.314;2024-01-15T14:22:30;54.22;;;34.72;;
60257;SDS011;46115;44.484;11.314;2024-01-15T14:26:32;46.20;;;32.80;;
60257;SDS011;46115;44.484;11.314;2024-01-15T14:30:34;44.28;;;33.25;;
60257;SDS011;46115;44.484;11.314;2024-01-15T14:34:38;51.40;;;33.13;;
60257;SDS011;46115;44.484;11.314;2024-01-15T14:38:41;48.35;;;34.72;;
60257;SDS011;46115;44.484;11.314;2024-01-15T14:42:43;49.60;;;33.90;;
60257;SDS011;46115;44.484;11.314;2024-01-15T14:46:46;52.13;;;35.33;;
60257;SDS011;46115;44.484;11.314;2024-01-15T14:50:50;53.03;;;36.53;;
60257;SDS011;46115;44.484;11.314;2024-01-15T14:54:52;53.92;;;35.50;;
60257;SDS011;46115;44.484;11.314;2024-01-15T15:02:57;53.30;;;36.60;;
60257;SDS011;46115;44.484;11.314;2024-01-15T15:07:01;59.63;;;37.22;;
60257;SDS011;46115;44.484;11.314;2024-01-15T15:11:03;56.67;;;36.92;;
60257;SDS011;46115;44.484;11.314;2024-01-15T15:15:06;58.40;;;36.58;;
60257;SDS011;46115;44.484;11.314;2024-01-15T15:19:11;51.95;;;36.08;;
60257;SDS011;46115;44.484;11.314;2024-01-15T15:23:15;55.65;;;37.30;;
60257;SDS011;46115;44.484;11.314;2024-01-15T15:27:19;55.88;;;36.17;;
60257;SDS011;46115;44.484;11.314;2024-01-15T15:31:22;54.25;;;36.42;;
60257;SDS011;46115;44.484;11.314;2024-01-15T15:35:24;57.72;;;36.85;;
60257;SDS011;46115;44.484;11.314;2024-01-15T15:39:28;55.35;;;38.20;;
60257;SDS011;46115;44.484;11.314;2024-01-15T15:43:31;63.20;;;39.50;;
60257;SDS011;46115;44.484;11.314;2024-01-15T15:51:36;61.72;;;39.28;;
60257;SDS011;46115;44.484;11.314;2024-01-15T15:55:40;55.33;;;38.08;;
60257;SDS011;46115;44.484;11.314;2024-01-15T15:59:42;55.08;;;37.17;;
60257;SDS011;46115;44.484;11.314;2024-01-15T16:03:45;57.90;;;38.42;;
60257;SDS011;46115;44.484;11.314;2024-01-15T16:07:47;63.58;;;38.28;;
60257;SDS011;46115;44.484;11.314;2024-01-15T16:11:51;59.40;;;38.70;;
60257;SDS011;46115;44.484;11.314;2024-01-15T16:15:54;57.42;;;39.63;;
60257;SDS011;46115;44.484;11.314;2024-01-15T23:06:16;87.35;;;56.60;;
60257;SDS011;46115;44.484;11.314;2024-01-15T23:10:19;83.93;;;53.55;;
60257;SDS011;46115;44.484;11.314;2024-01-15T23:14:22;89.55;;;57.83;;
60257;SDS011;46115;44.484;11.314;2024-01-15T23:18:25;93.38;;;59.38;;
60257;SDS011;46115;44.484;11.314;2024-01-15T23:22:29;100.22;;;61.22;;
60257;SDS011;46115;44.484;11.314;2024-01-15T23:26:32;97.90;;;60.97;;
60257;SDS011;46115;44.484;11.314;2024-01-15T23:30:34;93.82;;;59.45;;
60257;SDS011;46115;44.484;11.314;2024-01-15T23:34:37;78.55;;;51.28;;
60257;SDS011;46115;44.484;11.314;2024-01-15T23:38:41;85.20;;;53.25;;
60257;SDS011;46115;44.484;11.314;2024-01-15T23:42:43;85.25;;;54.20;;
60257;SDS011;46115;44.484;11.314;2024-01-15T23:46:46;83.95;;;55.03;;
60257;SDS011;46115;44.484;11.314;2024-01-15T23:50:48;92.25;;;58.28;;
60257;SDS011;46115;44.484;11.314;2024-01-15T23:58:54;83.80;;;53.40;;
